Time;durP1;ratioP1;P1;durP2;ratioP2;P2;SDS_P1;SDS_P2;PMS_P1;PMS_P2;Temp;Humidity;BMP_temperature;BMP_pressure;BME280_temperature;BME280_humidity;BME280_pressure;Samples;Min_cycle;Max_cycle;Signal;HPM_P1;HPM_P2
2021/11/16 00:00:33;;;;;;;26.57;19.17;;;;;;;;;;4998718;28;20187;-52
2021/11/16 00:02:59;;;;;;;28.53;20.70;;;;;;;;;;5010965;28;20187;-52
2021/11/16 00:05:25;;;;;;;32.83;21.53;;;;;;;;;;5001961;28;20194;-52
2021/11/16 00:07:52;;;;;;;27.30;19.53;;;;;;;;;;5004075;28;20186;-54
2021/11/16 00:10:18;;;;;;;26.10;19.43;;;;;;;;;;5015805;28;20224;-52
2021/11/16 00:12:45;;;;;;;26.47;18.70;;;;;;;;;;5003124;28;20321;-52
2021/11/16 00:15:11;;;;;;;27.93;19.13;;;;;;;;;;5004593;28;20194;-52
2021/11/16 00:17:37;;;;;;;27.53;20.07;;;;;;;;;;5006515;28;20586;-53
2021/11/16 00:20:06;;;;;;;28.87;18.83;;;;;;;;;;4979005;28;20204;-53
2021/11/16 00:22:32;;;;;;;28.67;19.40;;;;;;;;;;4999175;28;20591;-52
2021/11/16 00:27:30;;;;;;;27.83;19.77;;;;;;;;;;4999347;28;20213;-52
2021/11/16 00:29:56;;;;;;;27.80;19.47;;;;;;;;;;4998627;28;20263;-52
2021/11/16 00:32:23;;;;;;;25.87;18.33;;;;;;;;;;4997765;28;20185;-52
2021/11/16 00:34:49;;;;;;;28.27;18.93;;;;;;;;;;5011126;28;20225;-53
2021/11/16 00:37:16;;;;;;;27.17;19.13;;;;;;;;;;5003989;28;20234;-52
2021/11/16 00:39:42;;;;;;;24.43;18.00;;;;;;;;;;4997071;28;20185;-52
2021/11/16 00:42:08;;;;;;;25.83;18.37;;;;;;;;;;4996701;28;20193;-53
2021/11/16 00:44:34;;;;;;;26.83;19.77;;;;;;;;;;5006990;28;20269;-52
2021/11/16 00:47:00;;;;;;;26.13;18.03;;;;;;;;;;5004256;28;20185;-52
2021/11/16 00:49:26;;;;;;;26.70;18.67;;;;;;;;;;4998112;28;20793;-52
2021/11/16 00:51:52;;;;;;;25.10;17.87;;;;;;;;;;4985216;28;20261;-52
2021/11/16 00:54:18;;;;;;;24.70;18.57;;;;;;;;;;5011583;28;20210;-52
2021/11/16 00:56:44;;;;;;;25.43;18.10;;;;;;;;;;5000375;28;20222;-52
2021/11/16 00:59:10;;;;;;;25.70;18.27;;;;;;;;;;5007574;28;20210;-52
2021/11/16 01:01:37;;;;;;;26.57;18.37;;;;;;;;;;5002569;28;20630;-52
2021/11/16 01:04:03;;;;;;;25.60;17.43;;;;;;;;;;5000639;28;20187;-52
2021/11/16 01:06:29;;;;;;;27.00;18.60;;;;;;;;;;4994618;28;20182;-52
2021/11/16 01:08:55;;;;;;;26.77;18.30;;;;;;;;;;5002736;28;20230;-53
2021/11/16 01:11:21;;;;;;;22.80;17.33;;;;;;;;;;4994412;28;20215;-53
2021/11/16 01:13:47;;;;;;;27.93;18.30;;;;;;;;;;5006359;28;20213;-52
2021/11/16 01:16:14;;;;;;;25.13;17.47;;;;;;;;;;5007352;28;20206;-52
2021/11/16 01:18:40;;;;;;;25.80;18.07;;;;;;;;;;4981109;28;20171;-52
2021/11/16 01:21:06;;;;;;;26.27;20.20;;;;;;;;;;4994778;28;20203;-53
2021/11/16 01:23:32;;;;;;;25.70;17.63;;;;;;;;;;5005729;28;20170;-52
2021/11/16 01:26:00;;;;;;;24.67;17.90;;;;;;;;;;4998675;28;20274;-52
2021/11/16 01:28:28;;;;;;;24.00;17.53;;;;;;;;;;5001951;28;20182;-52
2021/11/16 01:30:57;;;;;;;30.70;19.57;;;;;;;;;;4995986;28;20175;-52
2021/11/16 01:33:28;;;;;;;26.97;18.03;;;;;;;;;;5004486;28;20186;-52
2021/11/16 01:35:55;;;;;;;25.40;17.83;;;;;;;;;;5007956;28;20198;-52
2021/11/16 01:38:23;;;;;;;24.63;17.80;;;;;;;;;;5001694;28;20388;-53
2021/11/16 01:40:49;;;;;;;25.03;18.27;;;;;;;;;;5002242;28;20174;-53
2021/11/16 01:43:16;;;;;;;23.13;17.13;;;;;;;;;;4999923;28;20179;-52
2021/11/16 01:45:42;;;;;;;25.57;17.77;;;;;;;;;;4990394;28;20183;-52
2021/11/16 01:48:09;;;;;;;24.27;16.80;;;;;;;;;;5001825;28;20657;-52
2021/11/16 01:50:36;;;;;;;25.57;18.33;;;;;;;;;;4997088;28;20218;-52
2021/11/16 01:53:02;;;;;;;26.57;18.93;;;;;;;;;;5000471;28;21485;-52
2021/11/16 01:55:28;;;;;;;25.63;17.50;;;;;;;;;;5002743;28;20210;-52
2021/11/16 01:57:55;;;;;;;26.13;17.47;;;;;;;;;;5004217;28;20183;-52
2021/11/16 02:00:23;;;;;;;25.73;18.07;;;;;;;;;;4992498;28;20179;-53
2021/11/16 02:02:49;;;;;;;23.73;18.90;;;;;;;;;;5000010;28;20183;-52
2021/11/16 02:05:15;;;;;;;27.70;18.73;;;;;;;;;;4999526;28;20197;-52
2021/11/16 02:07:46;;;;;;;24.40;17.03;;;;;;;;;;5005671;28;20655;-52
2021/11/16 02:10:12;;;;;;;26.03;18.20;;;;;;;;;;5001733;28;20186;-52
2021/11/16 02:12:38;;;;;;;24.23;17.40;;;;;;;;;;5006009;28;20459;-52
2021/11/16 02:15:06;;;;;;;24.13;15.57;;;;;;;;;;4993249;28;20183;-53
2021/11/16 02:17:32;;;;;;;25.67;18.33;;;;;;;;;;4999724;28;20511;-52
2021/11/16 02:19:58;;;;;;;28.17;18.97;;;;;;;;;;5000872;28;20423;-52
2021/11/16 02:22:24;;;;;;;25.73;18.17;;;;;;;;;;5005106;28;20242;-52
2021/11/16 02:24:51;;;;;;;23.93;17.73;;;;;;;;;;5007276;28;20633;-52
2021/11/16 02:27:17;;;;;;;22.03;16.33;;;;;;;;;;5001687;28;20370;-52
2021/11/16 02:29:43;;;;;;;23.10;16.80;;;;;;;;;;5006994;28;20265;-52
2021/11/16 02:32:09;;;;;;;25.67;18.17;;;;;;;;;;5000497;28;20182;-52
2021/11/16 02:34:35;;;;;;;25.73;17.27;;;;;;;;;;5006656;28;20183;-53
2021/11/16 02:37:01;;;;;;;23.73;16.40;;;;;;;;;;5006562;28;20210;-53
2021/11/16 02:39:27;;;;;;;22.80;17.33;;;;;;;;;;5008913;28;20189;-52
2021/11/16 02:42:01;;;;;;;23.60;18.07;;;;;;;;;;4999065;28;20270;-53
2021/11/16 02:44:27;;;;;;;25.47;18.00;;;;;;;;;;5000840;28;20168;-52
2021/11/16 02:46:53;;;;;;;27.87;17.47;;;;;;;;;;5000548;28;20170;-53
2021/11/16 02:49:20;;;;;;;27.13;17.17;;;;;;;;;;5004834;28;20540;-52
2021/11/16 02:51:46;;;;;;;23.50;17.63;;;;;;;;;;5005967;28;20249;-53
2021/11/16 02:54:16;;;;;;;22.20;16.60;;;;;;;;;;5004043;28;20688;-52
2021/11/16 02:56:43;;;;;;;28.70;18.73;;;;;;;;;;4997892;28;20210;-52
2021/11/16 02:59:10;;;;;;;24.83;17.03;;;;;;;;;;5003513;28;20175;-52
2021/11/16 03:01:36;;;;;;;24.43;18.27;;;;;;;;;;4993499;28;20273;-52
2021/11/16 03:04:03;;;;;;;28.00;19.50;;;;;;;;;;5010288;28;20178;-52
2021/11/16 03:06:29;;;;;;;24.50;17.17;;;;;;;;;;4998054;28;20187;-53
2021/11/16 03:08:55;;;;;;;27.30;16.10;;;;;;;;;;5006446;28;20207;-53
2021/11/16 03:11:28;;;;;;;26.77;17.70;;;;;;;;;;5008005;28;20567;-52
2021/11/16 03:13:54;;;;;;;24.33;17.97;;;;;;;;;;4995380;28;20195;-53
2021/11/16 03:16:24;;;;;;;22.80;16.80;;;;;;;;;;5007852;28;20202;-52
2021/11/16 03:18:52;;;;;;;21.43;16.37;;;;;;;;;;5005391;28;20595;-52
2021/11/16 03:21:19;;;;;;;23.57;18.40;;;;;;;;;;5007122;28;20610;-52
2021/11/16 03:23:49;;;;;;;21.33;16.37;;;;;;;;;;5004114;28;20229;-52
2021/11/16 03:26:16;;;;;;;24.60;16.97;;;;;;;;;;5000636;28;20190;-52
2021/11/16 03:28:46;;;;;;;25.40;18.83;;;;;;;;;;5002145;28;20305;-52
2021/11/16 03:31:21;;;;;;;24.93;17.07;;;;;;;;;;5006534;28;20209;-52
2021/11/16 03:33:47;;;;;;;23.43;17.03;;;;;;;;;;4999658;28;20566;-52
2021/11/16 03:36:14;;;;;;;22.97;17.23;;;;;;;;;;4999560;28;20210;-52
2021/11/16 03:38:40;;;;;;;23.10;16.57;;;;;;;;;;5007200;28;21334;-52
2021/11/16 03:41:07;;;;;;;23.80;17.07;;;;;;;;;;5010267;28;20198;-52
2021/11/16 03:43:34;;;;;;;22.37;16.57;;;;;;;;;;5005302;28;20191;-52
2021/11/16 03:46:00;;;;;;;22.90;17.57;;;;;;;;;;4977142;28;20246;-52
2021/11/16 03:48:28;;;;;;;22.83;17.27;;;;;;;;;;5004369;28;20192;-52
2021/11/16 03:50:55;;;;;;;22.73;17.30;;;;;;;;;;4993664;28;20252;-53
2021/11/16 03:53:21;;;;;;;25.43;17.90;;;;;;;;;;5005400;28;20174;-53
2021/11/16 03:55:48;;;;;;;22.57;16.07;;;;;;;;;;5009145;28;20218;-53
2021/11/16 03:58:16;;;;;;;22.97;17.77;;;;;;;;;;5004539;28;20183;-51
2021/11/16 04:00:45;;;;;;;20.80;16.83;;;;;;;;;;5007024;28;20183;-52
2021/11/16 04:03:11;;;;;;;23.80;15.80;;;;;;;;;;5006442;28;20175;-53
2021/11/16 04:05:38;;;;;;;22.67;15.93;;;;;;;;;;5009307;28;20196;-52
2021/11/16 04:08:04;;;;;;;23.83;18.10;;;;;;;;;;5007920;28;20186;-52
2021/11/16 04:10:30;;;;;;;25.43;16.60;;;;;;;;;;5006146;28;20193;-52
2021/11/16 04:12:56;;;;;;;21.97;16.60;;;;;;;;;;5004151;28;20226;-52
2021/11/16 04:15:24;;;;;;;22.40;16.70;;;;;;;;;;4995181;28;20201;-52
2021/11/16 04:17:54;;;;;;;22.60;17.03;;;;;;;;;;5004927;28;20258;-53
2021/11/16 04:20:22;;;;;;;24.23;18.23;;;;;;;;;;4998356;28;20174;-53
2021/11/16 04:22:48;;;;;;;22.83;16.83;;;;;;;;;;5004284;28;20182;-52
2021/11/16 04:25:15;;;;;;;23.53;17.23;;;;;;;;;;5008167;28;20178;-52
2021/11/16 04:27:41;;;;;;;21.60;17.27;;;;;;;;;;4983192;28;20186;-52
2021/11/16 04:30:08;;;;;;;24.33;17.60;;;;;;;;;;5007939;28;20512;-53
2021/11/16 04:32:34;;;;;;;20.07;15.53;;;;;;;;;;5005678;28;20191;-52
2021/11/16 04:35:00;;;;;;;22.27;16.93;;;;;;;;;;4991069;28;20654;-52
2021/11/16 04:37:26;;;;;;;22.87;15.97;;;;;;;;;;5000127;28;20186;-53
2021/11/16 04:39:53;;;;;;;24.17;17.63;;;;;;;;;;5001009;28;20183;-52
2021/11/16 04:42:19;;;;;;;23.20;16.10;;;;;;;;;;4998430;28;20179;-52
2021/11/16 04:44:47;;;;;;;23.50;16.97;;;;;;;;;;5002717;28;20182;-52
2021/11/16 04:47:18;;;;;;;22.40;16.40;;;;;;;;;;5008602;28;20644;-52
2021/11/16 04:49:48;;;;;;;23.80;17.23;;;;;;;;;;5009869;28;20567;-52
2021/11/16 04:52:42;;;;;;;23.73;16.50;;;;;;;;;;5002920;28;20637;-52
2021/11/16 04:55:32;;;;;;;22.40;16.90;;;;;;;;;;5004537;28;20179;-52
2021/11/16 05:03:39;;;;;;;23.10;16.83;;;;;;;;;;5007645;28;20212;-52
2021/11/16 05:06:05;;;;;;;26.00;17.77;;;;;;;;;;4998767;28;20186;-52
2021/11/16 05:08:31;;;;;;;21.07;16.43;;;;;;;;;;5018034;28;20536;-53
2021/11/16 05:10:57;;;;;;;24.87;16.70;;;;;;;;;;5003201;28;20281;-52
2021/11/16 05:13:23;;;;;;;23.37;16.67;;;;;;;;;;5005242;28;20261;-52
2021/11/16 05:15:50;;;;;;;21.13;15.43;;;;;;;;;;4996191;28;20207;-53
2021/11/16 05:18:17;;;;;;;23.40;16.80;;;;;;;;;;4998628;28;20554;-52
2021/11/16 05:20:43;;;;;;;24.87;17.97;;;;;;;;;;5002413;28;20257;-52
2021/11/16 05:23:11;;;;;;;21.57;16.87;;;;;;;;;;4986292;28;20182;-53
2021/11/16 05:25:37;;;;;;;23.80;17.63;;;;;;;;;;5006801;28;20197;-52
2021/11/16 05:28:05;;;;;;;22.77;16.60;;;;;;;;;;4996158;28;20188;-52
2021/11/16 05:30:35;;;;;;;23.60;16.97;;;;;;;;;;4977884;28;20200;-52
2021/11/16 05:33:01;;;;;;;23.00;16.07;;;;;;;;;;5005375;28;20174;-52
2021/11/16 05:35:27;;;;;;;22.03;15.73;;;;;;;;;;5002659;28;20207;-52
2021/11/16 05:37:53;;;;;;;23.07;16.00;;;;;;;;;;5003305;28;20182;-52
2021/11/16 05:40:19;;;;;;;23.23;15.90;;;;;;;;;;5004715;28;20175;-52
2021/11/16 05:42:45;;;;;;;23.20;14.93;;;;;;;;;;5004174;28;20185;-52
2021/11/16 05:45:11;;;;;;;21.53;17.10;;;;;;;;;;4992200;28;20549;-52
2021/11/16 05:47:38;;;;;;;21.17;15.83;;;;;;;;;;5001864;28;20182;-53
2021/11/16 05:50:05;;;;;;;23.60;15.90;;;;;;;;;;4999008;28;20237;-52
2021/11/16 05:52:32;;;;;;;23.93;16.70;;;;;;;;;;4992919;28;20188;-52
2021/11/16 05:54:58;;;;;;;21.47;16.20;;;;;;;;;;5000369;28;20648;-52
2021/11/16 05:57:24;;;;;;;23.77;16.40;;;;;;;;;;5001092;28;20265;-52
2021/11/16 05:59:50;;;;;;;22.43;16.00;;;;;;;;;;4982578;28;20185;-52
2021/11/16 06:02:17;;;;;;;21.80;14.97;;;;;;;;;;4998112;28;20560;-52
2021/11/16 06:04:44;;;;;;;21.93;15.80;;;;;;;;;;5002710;28;20280;-52
2021/11/16 06:07:10;;;;;;;20.53;15.07;;;;;;;;;;4998625;28;20688;-52
2021/11/16 06:09:36;;;;;;;22.93;15.60;;;;;;;;;;4994908;28;20179;-52
2021/11/16 06:12:04;;;;;;;19.60;15.27;;;;;;;;;;4983875;28;20460;-52
2021/11/16 06:14:30;;;;;;;19.23;15.13;;;;;;;;;;4986641;28;20268;-52
2021/11/16 06:16:56;;;;;;;20.40;14.53;;;;;;;;;;4989136;28;20882;-52
2021/11/16 06:19:26;;;;;;;18.77;14.40;;;;;;;;;;5013022;28;20170;-52
2021/11/16 06:21:53;;;;;;;17.20;14.30;;;;;;;;;;5007746;28;20210;-53
2021/11/16 06:24:19;;;;;;;18.20;15.10;;;;;;;;;;5011887;28;20225;-53
2021/11/16 06:26:46;;;;;;;17.67;14.47;;;;;;;;;;4973707;28;20282;-52
2021/11/16 06:29:12;;;;;;;18.03;14.53;;;;;;;;;;5011832;28;20667;-53
2021/11/16 06:31:38;;;;;;;20.20;15.77;;;;;;;;;;5008995;28;20190;-53
2021/11/16 06:34:05;;;;;;;17.20;14.50;;;;;;;;;;5010352;28;20692;-53
2021/11/16 06:36:34;;;;;;;18.57;15.20;;;;;;;;;;5009154;28;20194;-53
2021/11/16 06:39:01;;;;;;;17.90;14.53;;;;;;;;;;4986389;28;20193;-53
2021/11/16 06:41:28;;;;;;;17.50;14.83;;;;;;;;;;4986784;28;20179;-53
2021/11/16 06:43:54;;;;;;;17.10;14.43;;;;;;;;;;5006728;28;20692;-53
2021/11/16 06:46:20;;;;;;;17.93;15.30;;;;;;;;;;4990967;28;20186;-53
2021/11/16 06:51:53;;;;;;;20.03;15.17;;;;;;;;;;5000813;28;20581;-53
2021/11/16 06:54:21;;;;;;;18.47;15.30;;;;;;;;;;4989726;28;20182;-54
2021/11/16 06:59:51;;;;;;;20.57;15.17;;;;;;;;;;5003460;28;20173;-52
2021/11/16 07:02:22;;;;;;;22.87;16.73;;;;;;;;;;5008787;28;20225;-52
2021/11/16 07:04:48;;;;;;;28.53;21.07;;;;;;;;;;5010385;28;20193;-53
2021/11/16 07:07:14;;;;;;;32.00;23.23;;;;;;;;;;5025122;28;20329;-52
2021/11/16 07:09:41;;;;;;;34.20;23.00;;;;;;;;;;5011389;28;20178;-52
2021/11/16 07:12:16;;;;;;;33.53;23.90;;;;;;;;;;5007414;28;20262;-52
2021/11/16 07:14:42;;;;;;;36.87;25.97;;;;;;;;;;4973359;28;20199;-52
2021/11/16 07:17:10;;;;;;;39.73;25.50;;;;;;;;;;4990947;28;20258;-53
2021/11/16 07:19:38;;;;;;;40.43;27.97;;;;;;;;;;4991279;28;20175;-52
2021/11/16 07:22:06;;;;;;;44.87;27.80;;;;;;;;;;4983578;28;20172;-52
2021/11/16 07:24:32;;;;;;;44.80;26.93;;;;;;;;;;4979478;28;20267;-52
2021/11/16 07:27:03;;;;;;;39.20;26.53;;;;;;;;;;4974921;28;20650;-52
2021/11/16 07:29:32;;;;;;;41.13;26.70;;;;;;;;;;4990014;28;20191;-52
2021/11/16 07:31:58;;;;;;;38.63;27.33;;;;;;;;;;4961082;28;20188;-52
2021/11/16 07:34:24;;;;;;;44.47;27.13;;;;;;;;;;4991263;28;20191;-52
2021/11/16 07:36:58;;;;;;;43.77;28.20;;;;;;;;;;4990080;28;20211;-52
2021/11/16 07:39:25;;;;;;;45.90;29.47;;;;;;;;;;4986991;28;20234;-52
2021/11/16 07:41:52;;;;;;;42.20;27.30;;;;;;;;;;4986179;28;20206;-52
2021/11/16 07:44:18;;;;;;;46.43;28.07;;;;;;;;;;4991322;28;20647;-52
2021/11/16 07:46:53;;;;;;;46.67;27.43;;;;;;;;;;4979267;28;20180;-52
2021/11/16 07:49:20;;;;;;;43.97;26.97;;;;;;;;;;4982224;28;20383;-53
2021/11/16 07:51:46;;;;;;;44.00;28.47;;;;;;;;;;4957174;28;20187;-52
2021/11/16 07:54:15;;;;;;;45.70;28.23;;;;;;;;;;4983809;28;20184;-53
2021/11/16 07:56:42;;;;;;;45.20;27.67;;;;;;;;;;4983161;28;20678;-53
2021/11/16 07:59:10;;;;;;;47.73;29.43;;;;;;;;;;4971115;28;20183;-53
2021/11/16 08:01:44;;;;;;;49.63;28.07;;;;;;;;;;4967322;28;20194;-52
2021/11/16 08:07:03;;;;;;;47.90;28.80;;;;;;;;;;4990792;28;20678;-52
2021/11/16 08:14:36;;;;;;;51.30;28.93;;;;;;;;;;4975082;28;20690;-53
2021/11/16 08:17:04;;;;;;;55.13;29.57;;;;;;;;;;4991134;28;20520;-52
2021/11/16 08:19:32;;;;;;;47.97;30.03;;;;;;;;;;4989451;28;20361;-53
2021/11/16 08:22:00;;;;;;;52.13;28.50;;;;;;;;;;5009756;28;20189;-53
2021/11/16 08:24:34;;;;;;;59.47;30.87;;;;;;;;;;4975853;28;20178;-52
2021/11/16 08:27:01;;;;;;;51.83;29.37;;;;;;;;;;4987635;28;20674;-53
2021/11/16 08:29:29;;;;;;;49.70;28.27;;;;;;;;;;5007222;28;20198;-53
2021/11/16 08:32:22;;;;;;;47.80;28.60;;;;;;;;;;4986348;28;20191;-53
2021/11/16 08:34:48;;;;;;;49.23;28.50;;;;;;;;;;4997282;28;20195;-52
2021/11/16 08:37:16;;;;;;;50.77;29.53;;;;;;;;;;5023713;28;20272;-52
2021/11/16 08:39:43;;;;;;;43.30;27.37;;;;;;;;;;4988361;28;20718;-53
2021/11/16 08:42:11;;;;;;;49.00;27.67;;;;;;;;;;4981154;28;20181;-53
2021/11/16 08:44:47;;;;;;;48.70;28.57;;;;;;;;;;5005797;28;20185;-53
2021/11/16 08:47:14;;;;;;;49.17;27.87;;;;;;;;;;5004744;28;20182;-53
2021/11/16 08:49:41;;;;;;;47.53;27.10;;;;;;;;;;4973288;28;20290;-53
2021/11/16 08:52:16;;;;;;;46.90;29.67;;;;;;;;;;4977388;28;20604;-52
2021/11/16 08:55:03;;;;;;;44.97;28.43;;;;;;;;;;4991891;28;20554;-53
2021/11/16 08:57:30;;;;;;;53.97;29.13;;;;;;;;;;4990751;28;20217;-53
2021/11/16 08:59:57;;;;;;;50.47;29.67;;;;;;;;;;5000287;28;20175;-53
2021/11/16 09:02:25;;;;;;;46.10;28.80;;;;;;;;;;4979481;28;20545;-53
2021/11/16 09:04:51;;;;;;;48.80;29.20;;;;;;;;;;4988323;28;20649;-53
2021/11/16 09:07:19;;;;;;;54.50;28.23;;;;;;;;;;5008975;28;20591;-53
2021/11/16 09:10:05;;;;;;;50.03;29.00;;;;;;;;;;4989710;28;20717;-53
2021/11/16 09:12:44;;;;;;;50.20;26.73;;;;;;;;;;4962447;28;20540;-53
2021/11/16 09:15:13;;;;;;;52.23;28.80;;;;;;;;;;4982977;28;20242;-53
2021/11/16 09:17:43;;;;;;;51.60;29.27;;;;;;;;;;4989181;28;20191;-53
2021/11/16 09:20:21;;;;;;;49.20;28.83;;;;;;;;;;4985234;28;20234;-54
2021/11/16 09:22:48;;;;;;;48.57;27.40;;;;;;;;;;4988413;28;20829;-52
2021/11/16 09:25:25;;;;;;;51.03;28.73;;;;;;;;;;4985077;28;20238;-52
2021/11/16 09:27:59;;;;;;;48.30;26.97;;;;;;;;;;4980263;28;20216;-52
2021/11/16 09:30:37;;;;;;;46.43;27.33;;;;;;;;;;4965307;28;20202;-52
2021/11/16 09:33:16;;;;;;;49.03;27.63;;;;;;;;;;4989197;28;20626;-52
2021/11/16 09:35:44;;;;;;;48.23;27.37;;;;;;;;;;4983457;28;20725;-52
2021/11/16 09:38:10;;;;;;;45.53;25.93;;;;;;;;;;4980173;28;20183;-52
2021/11/16 09:40:36;;;;;;;49.90;28.83;;;;;;;;;;4987626;28;20187;-53
2021/11/16 09:43:03;;;;;;;43.57;25.93;;;;;;;;;;4986075;28;20190;-53
2021/11/16 09:45:31;;;;;;;46.50;26.90;;;;;;;;;;4982726;28;20655;-54
2021/11/16 09:47:57;;;;;;;45.43;26.47;;;;;;;;;;4984123;28;20194;-53
2021/11/16 09:50:25;;;;;;;46.90;27.50;;;;;;;;;;4986675;28;20669;-53
2021/11/16 09:52:53;;;;;;;47.40;27.73;;;;;;;;;;4969873;28;20175;-53
2021/11/16 09:55:19;;;;;;;44.27;25.83;;;;;;;;;;4986942;28;20206;-53
2021/11/16 09:57:46;;;;;;;46.40;26.80;;;;;;;;;;4978628;28;20193;-53
2021/11/16 10:00:12;;;;;;;48.83;29.50;;;;;;;;;;4984095;28;20665;-53
2021/11/16 10:02:43;;;;;;;51.10;27.43;;;;;;;;;;4962087;28;20187;-53
2021/11/16 10:05:18;;;;;;;48.13;27.63;;;;;;;;;;4984205;28;20622;-53
2021/11/16 10:07:45;;;;;;;49.43;26.50;;;;;;;;;;4962225;28;20191;-53
2021/11/16 10:10:11;;;;;;;47.47;27.47;;;;;;;;;;4987726;28;20198;-53
2021/11/16 10:12:41;;;;;;;42.23;26.60;;;;;;;;;;4986159;28;20229;-53
2021/11/16 10:15:08;;;;;;;45.27;25.97;;;;;;;;;;4977236;28;20193;-53
2021/11/16 10:17:35;;;;;;;47.43;26.30;;;;;;;;;;4993010;28;20668;-53
2021/11/16 10:20:01;;;;;;;43.93;25.07;;;;;;;;;;4991112;28;20174;-53
2021/11/16 10:22:29;;;;;;;41.03;24.40;;;;;;;;;;5006071;28;20554;-53
2021/11/16 10:25:08;;;;;;;40.63;24.70;;;;;;;;;;5008892;28;20174;-53
2021/11/16 10:27:35;;;;;;;45.33;25.20;;;;;;;;;;5008279;28;20182;-53
2021/11/16 10:30:04;;;;;;;42.13;25.37;;;;;;;;;;4988003;28;20719;-53
2021/11/16 10:32:30;;;;;;;39.90;24.37;;;;;;;;;;4985019;28;20185;-53
2021/11/16 10:35:16;;;;;;;42.67;25.17;;;;;;;;;;4968177;28;20548;-54
2021/11/16 10:37:51;;;;;;;41.60;24.70;;;;;;;;;;5008683;28;20766;-53
2021/11/16 10:40:19;;;;;;;39.57;23.27;;;;;;;;;;5006108;28;20190;-53
2021/11/16 10:42:53;;;;;;;38.27;21.60;;;;;;;;;;5007632;28;20542;-53
2021/11/16 10:45:20;;;;;;;35.87;21.37;;;;;;;;;;5005270;28;20214;-53
2021/11/16 10:47:47;;;;;;;42.43;23.97;;;;;;;;;;5003094;28;20182;-53
2021/11/16 10:50:18;;;;;;;37.70;23.73;;;;;;;;;;4998638;28;20277;-52
2021/11/16 10:52:45;;;;;;;41.40;23.43;;;;;;;;;;5007760;28;20193;-53
2021/11/16 10:55:11;;;;;;;36.20;23.77;;;;;;;;;;5005360;28;20645;-53
2021/11/16 10:57:57;;;;;;;35.33;22.00;;;;;;;;;;5007208;28;20214;-53
2021/11/16 11:00:31;;;;;;;42.40;23.53;;;;;;;;;;5009429;28;20197;-53
2021/11/16 11:03:16;;;;;;;34.80;22.73;;;;;;;;;;4994152;28;20664;-53
2021/11/16 11:05:43;;;;;;;35.57;23.13;;;;;;;;;;4986206;28;20190;-53
2021/11/16 11:08:10;;;;;;;36.13;22.53;;;;;;;;;;5011558;28;20661;-53
2021/11/16 11:10:43;;;;;;;38.93;22.80;;;;;;;;;;5005996;28;20190;-53
2021/11/16 11:13:20;;;;;;;38.93;24.17;;;;;;;;;;4996421;28;20720;-53
2021/11/16 11:15:48;;;;;;;44.20;25.27;;;;;;;;;;4988788;28;20202;-52
2021/11/16 11:18:27;;;;;;;38.93;23.43;;;;;;;;;;4980329;28;20188;-53
2021/11/16 11:20:54;;;;;;;37.70;23.20;;;;;;;;;;4971328;28;20183;-53
2021/11/16 11:23:41;;;;;;;41.33;24.57;;;;;;;;;;4975628;28;20634;-53
2021/11/16 11:26:28;;;;;;;44.30;24.97;;;;;;;;;;5010845;28;20183;-53
2021/11/16 11:29:12;;;;;;;41.13;24.33;;;;;;;;;;4990388;28;20518;-53
2021/11/16 11:31:39;;;;;;;39.17;23.90;;;;;;;;;;4987816;28;20701;-53
2021/11/16 11:34:05;;;;;;;40.67;24.23;;;;;;;;;;4974564;28;20190;-54
2021/11/16 11:36:31;;;;;;;37.83;23.67;;;;;;;;;;4972908;28;20402;-53
2021/11/16 11:38:58;;;;;;;40.47;23.97;;;;;;;;;;4988709;28;20584;-53
2021/11/16 11:41:25;;;;;;;43.73;24.03;;;;;;;;;;4983206;28;20195;-53
2021/11/16 11:44:11;;;;;;;41.97;24.73;;;;;;;;;;4990565;28;20277;-53
2021/11/16 11:46:48;;;;;;;37.97;23.40;;;;;;;;;;4957343;28;20210;-53
2021/11/16 11:49:14;;;;;;;41.23;23.60;;;;;;;;;;4972535;28;20559;-53
2021/11/16 11:51:41;;;;;;;44.73;26.40;;;;;;;;;;4990332;28;20179;-53
2021/11/16 11:54:08;;;;;;;39.37;24.97;;;;;;;;;;4991673;28;20179;-53
2021/11/16 11:56:35;;;;;;;38.27;22.97;;;;;;;;;;4973828;28;20591;-54
2021/11/16 11:59:02;;;;;;;37.23;23.47;;;;;;;;;;4972466;28;20183;-53
2021/11/16 12:01:29;;;;;;;50.33;23.43;;;;;;;;;;4985823;28;20191;-53
2021/11/16 12:03:56;;;;;;;37.20;21.13;;;;;;;;;;4991181;28;20677;-53
2021/11/16 12:06:23;;;;;;;32.63;21.27;;;;;;;;;;4976553;28;20273;-53
2021/11/16 12:08:51;;;;;;;36.17;21.57;;;;;;;;;;4989696;28;20234;-53
2021/11/16 12:11:21;;;;;;;34.80;21.73;;;;;;;;;;4968019;28;20666;-53
2021/11/16 12:13:48;;;;;;;32.20;21.50;;;;;;;;;;4986386;28;20222;-53
2021/11/16 12:16:22;;;;;;;35.43;21.37;;;;;;;;;;5009280;28;20546;-54
2021/11/16 12:18:49;;;;;;;35.50;21.60;;;;;;;;;;4992453;28;20432;-54
2021/11/16 12:21:24;;;;;;;34.43;22.17;;;;;;;;;;5010663;28;20196;-53
2021/11/16 12:23:55;;;;;;;31.67;20.83;;;;;;;;;;5007166;28;20178;-54
2021/11/16 12:26:21;;;;;;;30.67;20.33;;;;;;;;;;4999175;28;20171;-54
2021/11/16 12:28:47;;;;;;;32.13;19.30;;;;;;;;;;5005314;28;20270;-54
2021/11/16 12:31:27;;;;;;;32.30;20.17;;;;;;;;;;4994988;28;20183;-53
2021/11/16 12:33:57;;;;;;;34.50;20.63;;;;;;;;;;5008126;28;20209;-54
2021/11/16 12:36:29;;;;;;;31.07;20.33;;;;;;;;;;4991169;28;20286;-54
2021/11/16 12:38:56;;;;;;;32.97;20.93;;;;;;;;;;5009297;28;20588;-53
2021/11/16 12:41:38;;;;;;;31.90;20.57;;;;;;;;;;5008706;28;20254;-53
2021/11/16 12:44:05;;;;;;;31.70;20.70;;;;;;;;;;4991938;28;20265;-53
2021/11/16 12:46:35;;;;;;;31.80;20.33;;;;;;;;;;5009112;28;20174;-52
2021/11/16 12:49:01;;;;;;;33.97;20.53;;;;;;;;;;5010025;28;20179;-52
2021/11/16 12:51:33;;;;;;;36.43;19.57;;;;;;;;;;5010193;28;20589;-53
2021/11/16 12:54:06;;;;;;;32.87;18.97;;;;;;;;;;5009973;28;20194;-53
2021/11/16 12:56:50;;;;;;;31.17;19.57;;;;;;;;;;5009416;28;20212;-53
2021/11/16 12:59:22;;;;;;;35.47;22.13;;;;;;;;;;5010050;28;20159;-53
2021/11/16 13:01:53;;;;;;;31.43;20.37;;;;;;;;;;5008435;28;20666;-53
2021/11/16 13:04:39;;;;;;;31.33;18.80;;;;;;;;;;5010047;28;20641;-53
2021/11/16 13:07:20;;;;;;;29.60;19.63;;;;;;;;;;5009058;28;20194;-53
2021/11/16 13:09:48;;;;;;;27.77;18.43;;;;;;;;;;5005842;28;20186;-53
2021/11/16 13:12:33;;;;;;;30.23;17.70;;;;;;;;;;4998967;28;20222;-53
2021/11/16 13:15:00;;;;;;;29.03;18.73;;;;;;;;;;5002071;28;20284;-53
2021/11/16 13:18:18;;;;;;;26.37;17.63;;;;;;;;;;5009539;28;20218;-53
2021/11/16 13:20:39;;;;;;;29.17;17.07;;;;;;;;;;5006268;28;20206;-53
2021/11/16 13:23:08;;;;;;;32.83;18.57;;;;;;;;;;5008842;28;20181;-54
2021/11/16 13:25:38;;;;;;;28.47;18.67;;;;;;;;;;4991611;28;20182;-53
2021/11/16 13:28:06;;;;;;;28.30;18.30;;;;;;;;;;5008992;28;20588;-53
2021/11/16 13:30:32;;;;;;;27.83;19.07;;;;;;;;;;5008042;28;20257;-53
2021/11/16 13:32:58;;;;;;;30.23;19.57;;;;;;;;;;5005259;28;20600;-54
2021/11/16 13:35:32;;;;;;;30.57;17.90;;;;;;;;;;5008937;28;20174;-53
2021/11/16 13:37:58;;;;;;;30.83;20.53;;;;;;;;;;4991589;28;20174;-54
2021/11/16 13:40:25;;;;;;;35.90;19.80;;;;;;;;;;4982319;28;20199;-53
2021/11/16 13:43:02;;;;;;;28.70;20.10;;;;;;;;;;4991089;28;20188;-53
2021/11/16 13:45:28;;;;;;;27.27;18.40;;;;;;;;;;4988459;28;20190;-53
2021/11/16 13:47:54;;;;;;;27.90;17.73;;;;;;;;;;5003302;28;20245;-54
2021/11/16 13:50:27;;;;;;;28.63;17.53;;;;;;;;;;5008444;28;20177;-53
2021/11/16 13:52:53;;;;;;;26.70;17.40;;;;;;;;;;5008390;28;20183;-53
2021/11/16 13:55:21;;;;;;;25.40;16.10;;;;;;;;;;4990924;28;20182;-53
2021/11/16 13:57:48;;;;;;;27.83;16.67;;;;;;;;;;5009229;28;20649;-53
2021/11/16 14:00:16;;;;;;;27.03;16.10;;;;;;;;;;4990238;28;20225;-53
2021/11/16 14:02:46;;;;;;;25.93;16.10;;;;;;;;;;5009054;28;20256;-56
2021/11/16 14:05:13;;;;;;;26.77;15.67;;;;;;;;;;5009050;28;20170;-53
2021/11/16 14:07:49;;;;;;;27.40;16.50;;;;;;;;;;5008439;28;20200;-57
2021/11/16 14:10:16;;;;;;;24.43;16.77;;;;;;;;;;4988194;28;20176;-53
2021/11/16 14:12:43;;;;;;;28.57;16.97;;;;;;;;;;5008149;28;20245;-53
2021/11/16 14:15:15;;;;;;;27.27;16.43;;;;;;;;;;4989988;28;20732;-53
2021/11/16 14:17:42;;;;;;;24.77;16.53;;;;;;;;;;5008592;28;20720;-54
2021/11/16 14:20:08;;;;;;;23.67;16.33;;;;;;;;;;5008685;28;20175;-54
2021/11/16 14:22:41;;;;;;;26.67;16.13;;;;;;;;;;4991043;28;20193;-54
2021/11/16 14:25:11;;;;;;;25.07;16.80;;;;;;;;;;5008003;28;21084;-55
2021/11/16 14:27:38;;;;;;;23.80;16.10;;;;;;;;;;4979789;28;20217;-54
2021/11/16 14:30:06;;;;;;;25.13;15.50;;;;;;;;;;5007372;28;20190;-53
2021/11/16 14:32:34;;;;;;;26.33;16.37;;;;;;;;;;4981801;28;20650;-53
2021/11/16 14:35:01;;;;;;;25.07;16.90;;;;;;;;;;4997807;28;20244;-55
2021/11/16 14:37:27;;;;;;;23.37;16.00;;;;;;;;;;5014852;28;20619;-53
2021/11/16 14:39:54;;;;;;;23.20;16.03;;;;;;;;;;5012026;28;20178;-53
2021/11/16 14:42:21;;;;;;;24.60;16.97;;;;;;;;;;5012133;28;20265;-53
2021/11/16 14:44:49;;;;;;;26.97;16.30;;;;;;;;;;5005918;28;20178;-52
2021/11/16 14:47:16;;;;;;;27.33;17.80;;;;;;;;;;5010014;28;20201;-52